createdAt,value
2023-02-19T00:01:57.450Z,1.00
2023-02-19T00:04:25.775Z,1.00
2023-02-19T00:06:54.203Z,1.00
2023-02-19T00:09:22.716Z,1.00
2023-02-19T00:11:51.216Z,1.00
2023-02-19T00:14:22.309Z,1.00
2023-02-19T00:16:51.393Z,1.00
2023-02-19T00:19:21.754Z,1.00
2023-02-19T00:21:54.791Z,1.00
2023-02-19T00:24:23.533Z,1.00
2023-02-19T00:26:51.924Z,1.00
2023-02-19T00:29:22.797Z,1.00
2023-02-19T00:31:51.299Z,1.00
2023-02-19T00:34:19.739Z,1.00
2023-02-19T00:36:48.240Z,1.00
2023-02-19T00:39:19.027Z,1.00
2023-02-19T00:41:47.537Z,1.00
2023-02-19T00:44:17.032Z,1.00
2023-02-19T00:46:48.227Z,1.00
2023-02-19T00:49:20.948Z,1.00
2023-02-19T00:51:50.599Z,1.00
2023-02-19T00:54:19.460Z,1.00
2023-02-19T00:56:48.191Z,1.00
2023-02-19T00:59:17.394Z,1.00
2023-02-19T01:01:46.330Z,1.00
2023-02-19T01:04:15.760Z,1.00
2023-02-19T01:06:44.314Z,1.00
2023-02-19T01:09:12.735Z,1.00
2023-02-19T01:11:41.105Z,1.00
2023-02-19T01:14:11.447Z,1.00
2023-02-19T01:16:39.896Z,1.00
2023-02-19T01:19:08.373Z,1.00
2023-02-19T01:21:36.755Z,1.00
2023-02-19T01:24:05.304Z,1.00
2023-02-19T01:26:34.648Z,1.00
2023-02-19T01:29:03.392Z,1.00
2023-02-19T01:31:32.258Z,1.00
2023-02-19T01:34:02.867Z,1.00
2023-02-19T01:36:33.889Z,1.00
2023-02-19T01:39:06.469Z,1.00
2023-02-19T01:41:37.605Z,1.00
2023-02-19T01:44:19.260Z,1.00
2023-02-19T01:46:49.316Z,1.00
2023-02-19T01:49:41.063Z,1.00
2023-02-19T01:52:33.489Z,1.00
2023-02-19T01:55:05.745Z,1.00
2023-02-19T01:57:40.547Z,1.00
2023-02-19T02:00:12.859Z,1.00
2023-02-19T02:02:43.892Z,1.00
2023-02-19T02:05:33.824Z,1.00
2023-02-19T02:08:22.951Z,1.00
2023-02-19T02:10:52.794Z,1.00
2023-02-19T02:13:21.230Z,1.00
2023-02-19T02:16:10.587Z,1.00
2023-02-19T02:19:14.243Z,1.00
2023-02-19T02:21:54.553Z,1.00
2023-02-19T02:24:44.807Z,1.00
2023-02-19T02:27:31.969Z,1.00
2023-02-19T02:30:19.364Z,3.80
2023-02-19T02:32:58.649Z,6.70
2023-02-19T02:35:47.078Z,5.80
2023-02-19T02:38:18.004Z,14.50
2023-02-19T02:40:47.977Z,19.50
2023-02-19T02:43:16.320Z,26.80
2023-02-19T02:45:45.012Z,27.70
2023-02-19T02:48:29.522Z,24.80
2023-02-19T02:51:08.126Z,19.00
2023-02-19T02:54:06.679Z,20.40
2023-02-19T02:56:36.744Z,19.90
2023-02-19T02:59:09.035Z,14.70
2023-02-19T03:01:59.374Z,12.80
2023-02-19T03:05:05.486Z,6.30
2023-02-19T03:08:00.254Z,4.60
2023-02-19T03:10:33.887Z,1.00
2023-02-19T03:13:22.526Z,1.00
2023-02-19T03:16:14.407Z,1.00
2023-02-19T03:19:06.193Z,1.00
2023-02-19T03:21:39.137Z,1.00
2023-02-19T03:24:29.233Z,1.00
2023-02-19T03:27:00.278Z,1.00
2023-02-19T03:29:32.392Z,1.00
2023-02-19T03:32:07.041Z,1.00
2023-02-19T03:34:59.478Z,1.00
2023-02-19T03:37:38.710Z,1.00
2023-02-19T03:40:07.531Z,1.00
2023-02-19T03:42:59.888Z,1.00
2023-02-19T03:45:40.465Z,1.00
2023-02-19T03:48:11.821Z,1.00
2023-02-19T03:50:40.116Z,1.00
2023-02-19T03:53:11.412Z,1.00
2023-02-19T03:55:55.005Z,1.00
2023-02-19T03:58:49.927Z,1.00
2023-02-19T04:01:45.595Z,1.00
2023-02-19T04:04:19.699Z,1.00
2023-02-19T04:06:53.818Z,1.00
2023-02-19T04:09:28.595Z,1.00
2023-02-19T04:11:57.358Z,1.00
2023-02-19T04:14:37.821Z,1.00
2023-02-19T04:17:12.302Z,1.00
2023-02-19T04:19:42.529Z,1.00
2023-02-19T04:22:13.381Z,1.00
2023-02-19T04:24:49.825Z,1.00
2023-02-19T04:27:18.762Z,1.00
2023-02-19T04:29:47.259Z,1.00
2023-02-19T04:32:16.007Z,1.00
2023-02-19T04:34:44.480Z,1.00
2023-02-19T04:37:12.866Z,1.00
2023-02-19T04:39:41.214Z,1.00
2023-02-19T04:42:11.166Z,1.00
2023-02-19T04:44:39.591Z,1.00
2023-02-19T04:47:07.938Z,1.00
2023-02-19T04:49:36.352Z,1.00
2023-02-19T04:52:04.828Z,1.00
2023-02-19T04:54:33.181Z,1.00
2023-02-19T04:57:01.577Z,1.00
2023-02-19T04:59:30.023Z,1.00
2023-02-19T05:02:01.113Z,1.00
2023-02-19T05:04:29.576Z,1.00
2023-02-19T05:06:58.006Z,1.00
2023-02-19T05:09:26.385Z,1.00
2023-02-19T05:11:54.742Z,1.00
2023-02-19T05:14:23.116Z,1.00
2023-02-19T05:16:51.744Z,1.00
2023-02-19T05:19:20.117Z,1.00
2023-02-19T05:21:48.641Z,1.00
2023-02-19T05:24:17.115Z,1.00
2023-02-19T05:26:45.657Z,1.00
2023-02-19T05:29:14.035Z,1.00
2023-02-19T05:31:42.712Z,1.00
2023-02-19T05:34:11.183Z,1.00
2023-02-19T05:36:40.825Z,1.00
2023-02-19T05:39:10.262Z,1.00
2023-02-19T05:41:39.766Z,1.00
2023-02-19T05:44:08.109Z,1.00
2023-02-19T05:46:36.711Z,1.00
2023-02-19T05:49:05.346Z,1.00
2023-02-19T05:51:33.780Z,1.00
2023-02-19T05:54:02.204Z,1.00
2023-02-19T05:56:37.532Z,1.00
2023-02-19T05:59:18.763Z,1.00
2023-02-19T06:01:47.816Z,1.00
2023-02-19T06:04:16.648Z,1.00
2023-02-19T06:06:45.037Z,1.00
2023-02-19T06:09:13.922Z,1.00
2023-02-19T06:11:44.125Z,1.00
2023-02-19T06:14:15.020Z,1.00
2023-02-19T06:16:43.544Z,1.00
2023-02-19T06:19:11.986Z,1.00
2023-02-19T06:21:40.412Z,1.00
2023-02-19T06:24:11.898Z,1.00
2023-02-19T06:26:40.402Z,1.00
2023-02-19T06:29:08.782Z,1.00
2023-02-19T06:31:37.206Z,1.00
2023-02-19T06:34:06.972Z,1.00
2023-02-19T06:36:35.781Z,9.00
2023-02-19T06:39:05.320Z,13.30
2023-02-19T06:41:34.037Z,26.10
2023-02-19T06:44:02.409Z,30.30
2023-02-19T06:46:31.062Z,27.70
2023-02-19T06:48:59.500Z,26.30
2023-02-19T06:51:30.378Z,28.40
2023-02-19T06:53:59.130Z,27.20
2023-02-19T06:56:32.077Z,28.80
2023-02-19T06:59:02.749Z,32.50
2023-02-19T07:01:32.878Z,29.50
2023-02-19T07:04:01.854Z,32.10
2023-02-19T07:06:32.097Z,51.70
2023-02-19T07:09:01.249Z,55.00
2023-02-19T07:11:33.079Z,50.30
2023-02-19T07:14:04.573Z,64.30
2023-02-19T07:16:33.235Z,67.70
2023-02-19T07:19:02.598Z,69.40
2023-02-19T07:21:31.637Z,67.90
2023-02-19T07:24:00.115Z,77.40
2023-02-19T07:26:28.460Z,84.80
2023-02-19T07:28:56.908Z,85.60
2023-02-19T07:31:26.195Z,84.10
2023-02-19T07:33:56.135Z,86.60
2023-02-19T07:36:25.886Z,86.80
2023-02-19T07:38:58.767Z,85.90
2023-02-19T07:41:28.363Z,92.20
2023-02-19T07:43:56.735Z,92.40
2023-02-19T07:46:26.105Z,95.50
2023-02-19T07:48:54.475Z,98.10
2023-02-19T07:51:23.951Z,99.60
2023-02-19T07:53:52.734Z,98.90
2023-02-19T07:56:21.756Z,96.60
2023-02-19T07:58:50.351Z,99.50
2023-02-19T08:01:42.162Z,99.90
2023-02-19T08:04:11.698Z,99.90
2023-02-19T08:06:40.163Z,99.90
2023-02-19T08:09:08.764Z,99.90
2023-02-19T08:11:55.345Z,98.30
2023-02-19T08:14:30.374Z,99.90
2023-02-19T08:16:58.887Z,99.90
2023-02-19T08:19:27.276Z,99.90
2023-02-19T08:21:55.917Z,99.90
2023-02-19T08:24:24.266Z,99.90
2023-02-19T08:26:52.732Z,99.90
2023-02-19T08:29:21.122Z,99.90
2023-02-19T08:31:49.726Z,99.90
2023-02-19T08:34:18.185Z,99.90
2023-02-19T08:36:46.575Z,99.50
2023-02-19T08:39:14.924Z,98.40
2023-02-19T08:41:43.356Z,95.60
2023-02-19T08:44:11.741Z,96.00
2023-02-19T08:46:40.072Z,95.10
2023-02-19T08:49:08.442Z,95.00
2023-02-19T08:51:36.821Z,92.90
2023-02-19T08:54:05.657Z,92.40
2023-02-19T08:56:34.059Z,90.60
2023-02-19T08:59:02.525Z,86.00
2023-02-19T09:01:30.887Z,86.00
2023-02-19T09:03:59.495Z,83.80
2023-02-19T09:06:27.912Z,80.50
2023-02-19T09:08:56.256Z,81.00
2023-02-19T09:11:24.637Z,80.00
2023-02-19T09:13:53.095Z,71.80
2023-02-19T09:16:21.420Z,73.70
2023-02-19T09:18:50.041Z,68.10
2023-02-19T09:21:18.455Z,64.10
2023-02-19T09:23:46.791Z,58.30
2023-02-19T09:26:15.209Z,54.50
2023-02-19T09:28:43.970Z,54.00
2023-02-19T09:31:15.682Z,51.00
2023-02-19T09:33:48.216Z,43.70
2023-02-19T09:36:17.973Z,41.00
2023-02-19T09:38:46.864Z,32.20
2023-02-19T09:41:37.345Z,28.90
2023-02-19T09:44:08.126Z,21.40
2023-02-19T09:46:47.693Z,23.40
2023-02-19T09:49:21.937Z,17.50
2023-02-19T09:51:57.841Z,14.10
2023-02-19T09:54:31.704Z,9.40
2023-02-19T09:57:03.544Z,10.70
2023-02-19T09:59:54.756Z,7.30
2023-02-19T10:02:26.377Z,7.40
2023-02-19T10:04:55.323Z,6.70
2023-02-19T10:07:26.877Z,2.10
2023-02-19T10:10:15.507Z,1.00
2023-02-19T10:12:53.846Z,1.00
2023-02-19T10:15:37.249Z,1.00
2023-02-19T10:18:10.224Z,1.00
2023-02-19T10:20:39.976Z,1.00
2023-02-19T10:23:12.416Z,1.00
2023-02-19T10:26:01.088Z,1.00
2023-02-19T10:28:37.400Z,1.00
2023-02-19T10:31:21.235Z,5.10
2023-02-19T10:33:57.521Z,4.00
2023-02-19T10:36:29.249Z,1.00
2023-02-19T10:39:00.025Z,1.00
2023-02-19T10:41:29.726Z,1.00
2023-02-19T10:44:09.313Z,1.00
2023-02-19T10:46:46.552Z,1.00
2023-02-19T10:49:36.445Z,1.00
2023-02-19T10:52:20.005Z,1.00
2023-02-19T10:54:56.675Z,1.00
2023-02-19T10:57:33.537Z,1.00
2023-02-19T11:00:24.000Z,1.00
2023-02-19T11:03:12.173Z,1.00
2023-02-19T11:05:44.189Z,1.00
2023-02-19T11:08:24.158Z,1.00
2023-02-19T11:10:52.618Z,1.00
2023-02-19T11:13:33.129Z,1.00
2023-02-19T11:16:02.020Z,1.00
2023-02-19T11:18:35.682Z,1.00
2023-02-19T11:21:06.722Z,7.00
2023-02-19T11:23:37.810Z,16.20
2023-02-19T11:26:16.958Z,15.70
2023-02-19T11:28:45.899Z,11.00
2023-02-19T11:31:22.925Z,14.70
2023-02-19T11:34:07.650Z,20.10
2023-02-19T11:36:37.540Z,16.10
2023-02-19T11:39:12.029Z,14.90
2023-02-19T11:42:05.257Z,15.60
2023-02-19T11:44:52.716Z,2.70
2023-02-19T11:47:45.643Z,2.30
2023-02-19T11:50:39.044Z,11.30
2023-02-19T11:53:35.015Z,30.10
2023-02-19T11:56:24.972Z,51.60
2023-02-19T11:59:05.955Z,45.60
2023-02-19T12:01:52.963Z,43.40
2023-02-19T12:04:39.734Z,48.00
2023-02-19T12:07:25.271Z,50.80
2023-02-19T12:09:59.567Z,46.70
2023-02-19T12:12:46.619Z,40.50
2023-02-19T12:15:21.159Z,37.20
2023-02-19T12:17:49.488Z,30.20
2023-02-19T12:20:42.827Z,34.40
2023-02-19T12:23:52.085Z,29.10
2023-02-19T12:26:26.514Z,28.20
2023-02-19T12:29:09.868Z,20.00
2023-02-19T12:31:41.414Z,16.20
2023-02-19T12:35:05.132Z,7.70
2023-02-19T12:37:49.793Z,6.00
2023-02-19T12:40:39.476Z,7.80
2023-02-19T12:43:12.922Z,4.60
2023-02-19T12:45:55.331Z,1.00
2023-02-19T12:48:49.450Z,1.00
2023-02-19T12:51:29.449Z,1.00
2023-02-19T12:54:19.109Z,1.00
2023-02-19T12:57:16.353Z,1.00
2023-02-19T13:00:19.997Z,1.00
2023-02-19T13:03:13.938Z,1.00
2023-02-19T13:06:18.004Z,1.00
2023-02-19T13:09:09.220Z,1.00
2023-02-19T13:12:02.997Z,1.00
2023-02-19T13:14:37.387Z,1.00
2023-02-19T13:17:53.596Z,1.00
2023-02-19T13:20:33.736Z,1.00
2023-02-19T13:23:29.462Z,1.00
2023-02-19T13:26:16.721Z,1.00
2023-02-19T13:29:32.349Z,1.00
2023-02-19T13:32:24.930Z,1.00
2023-02-19T13:34:55.930Z,1.00
2023-02-19T13:37:25.129Z,1.00
2023-02-19T13:39:55.990Z,1.00
2023-02-19T13:42:28.532Z,1.00
2023-02-19T13:44:58.585Z,1.00
2023-02-19T13:47:50.701Z,1.00
2023-02-19T13:50:34.190Z,1.00
2023-02-19T13:53:41.009Z,1.00
2023-02-19T13:56:34.847Z,1.00
2023-02-19T13:59:33.945Z,1.00
2023-02-19T14:02:05.204Z,1.00
2023-02-19T14:04:33.494Z,1.00
2023-02-19T14:07:04.985Z,1.00
2023-02-19T14:09:42.357Z,1.00
2023-02-19T14:12:15.648Z,1.00
2023-02-19T14:14:46.056Z,1.00
2023-02-19T14:17:29.622Z,1.00
2023-02-19T14:20:24.023Z,1.00
2023-02-19T14:23:09.606Z,1.00
2023-02-19T14:26:01.969Z,1.00
2023-02-19T14:28:36.979Z,1.00
2023-02-19T14:31:23.598Z,1.00
2023-02-19T14:33:54.550Z,1.00
2023-02-19T14:36:46.368Z,1.00
2023-02-19T14:39:24.689Z,1.00
2023-02-19T14:42:05.917Z,1.00
2023-02-19T14:44:49.354Z,1.00
2023-02-19T14:47:21.118Z,1.00
2023-02-19T14:49:49.429Z,1.00
2023-02-19T14:52:25.699Z,1.00
2023-02-19T14:55:06.635Z,1.00
2023-02-19T14:57:40.312Z,1.00
2023-02-19T15:00:24.032Z,1.00
2023-02-19T15:02:56.349Z,1.00
2023-02-19T15:05:33.537Z,1.00
2023-02-19T15:08:15.637Z,1.00
2023-02-19T15:10:44.780Z,1.00
2023-02-19T15:13:18.293Z,1.00
2023-02-19T15:15:48.088Z,1.00
2023-02-19T15:18:23.257Z,1.00
2023-02-19T15:20:53.227Z,1.00
2023-02-19T15:23:25.462Z,1.00
2023-02-19T15:25:54.202Z,1.00
2023-02-19T15:28:25.822Z,1.00
2023-02-19T15:31:00.003Z,1.00
2023-02-19T15:33:29.200Z,1.00
2023-02-19T15:36:13.378Z,1.00
2023-02-19T15:38:41.771Z,1.00
2023-02-19T15:41:20.625Z,1.00
2023-02-19T15:44:07.618Z,1.00
2023-02-19T15:46:37.826Z,1.00
2023-02-19T15:49:23.736Z,1.00
2023-02-19T15:52:03.611Z,1.00
2023-02-19T15:54:50.922Z,1.00
2023-02-19T15:57:25.682Z,1.00
2023-02-19T16:00:13.563Z,1.00
2023-02-19T16:02:42.412Z,1.00
2023-02-19T16:05:25.772Z,1.00
2023-02-19T16:08:12.479Z,1.00
2023-02-19T16:10:41.190Z,1.00
2023-02-19T16:13:12.850Z,1.00
2023-02-19T16:15:41.417Z,1.00
2023-02-19T16:18:16.040Z,1.00
2023-02-19T16:20:49.157Z,1.00
2023-02-19T16:23:21.531Z,1.00
2023-02-19T16:25:50.059Z,1.00
2023-02-19T16:28:24.954Z,1.00
2023-02-19T16:31:07.845Z,1.00
2023-02-19T16:33:42.113Z,1.00
2023-02-19T16:36:22.697Z,1.00
2023-02-19T16:39:09.506Z,1.00
2023-02-19T16:41:40.975Z,1.00
2023-02-19T16:44:36.747Z,1.00
2023-02-19T16:47:13.595Z,1.00
2023-02-19T16:49:43.359Z,1.00
2023-02-19T16:52:16.213Z,1.00
2023-02-19T16:54:44.783Z,1.00
2023-02-19T16:57:13.124Z,1.00
2023-02-19T16:59:41.535Z,1.00
2023-02-19T17:02:15.629Z,1.00
2023-02-19T17:04:44.089Z,1.00
2023-02-19T17:07:15.855Z,1.00
2023-02-19T17:09:44.644Z,1.00
2023-02-19T17:12:15.677Z,1.00
2023-02-19T17:14:44.044Z,1.00
2023-02-19T17:17:12.597Z,1.00
2023-02-19T17:19:41.033Z,1.00
2023-02-19T17:22:09.685Z,1.00
2023-02-19T17:24:38.074Z,1.00
2023-02-19T17:27:11.529Z,1.00
2023-02-19T17:29:40.762Z,1.00
2023-02-19T17:32:09.468Z,1.00
2023-02-19T17:34:37.888Z,1.00
2023-02-19T17:37:06.247Z,1.00
2023-02-19T17:39:34.580Z,1.00
2023-02-19T17:42:03.038Z,1.00
2023-02-19T17:44:31.419Z,1.00
2023-02-19T17:46:59.903Z,1.00
2023-02-19T17:49:28.606Z,1.00
2023-02-19T17:51:57.001Z,1.00
2023-02-19T17:54:25.333Z,1.00
2023-02-19T17:56:53.672Z,1.00
2023-02-19T17:59:22.051Z,1.00
2023-02-19T18:01:50.457Z,1.00
2023-02-19T18:04:18.924Z,1.00
2023-02-19T18:06:48.925Z,1.00
2023-02-19T18:09:20.118Z,1.00
2023-02-19T18:11:49.508Z,1.00
2023-02-19T18:14:17.881Z,1.00
2023-02-19T18:16:50.058Z,1.00
2023-02-19T18:19:19.015Z,1.00
2023-02-19T18:21:47.368Z,1.00
2023-02-19T18:24:15.923Z,1.00
2023-02-19T18:26:44.604Z,1.00
2023-02-19T18:29:13.715Z,1.00
2023-02-19T18:31:42.162Z,1.00
2023-02-19T18:34:20.281Z,1.00
2023-02-19T18:36:50.050Z,1.00
2023-02-19T18:39:18.412Z,1.00
2023-02-19T18:41:51.527Z,1.00
2023-02-19T18:44:21.936Z,1.00
2023-02-19T18:46:50.716Z,1.00
2023-02-19T18:49:19.520Z,1.00
2023-02-19T18:51:48.285Z,1.00
2023-02-19T18:54:16.704Z,1.00
2023-02-19T18:56:46.305Z,1.00
2023-02-19T18:59:15.063Z,1.00
2023-02-19T19:01:44.114Z,1.00
2023-02-19T19:04:12.698Z,1.00
2023-02-19T19:06:41.030Z,1.00
2023-02-19T19:09:09.726Z,1.00
2023-02-19T19:11:39.139Z,1.00
2023-02-19T19:14:07.484Z,1.00
2023-02-19T19:16:35.933Z,1.00
2023-02-19T19:19:04.556Z,1.00
2023-02-19T19:21:32.986Z,1.00
2023-02-19T19:24:01.351Z,1.00
2023-02-19T19:26:29.883Z,1.00
2023-02-19T19:28:58.481Z,1.00
2023-02-19T19:31:27.329Z,1.00
2023-02-19T19:33:55.797Z,1.00
2023-02-19T19:36:24.567Z,1.00
2023-02-19T19:38:52.996Z,1.00
2023-02-19T19:41:22.619Z,1.00
2023-02-19T19:43:50.961Z,1.00
2023-02-19T19:46:20.900Z,1.00
2023-02-19T19:48:50.437Z,1.00
2023-02-19T19:51:19.284Z,1.00
2023-02-19T19:53:51.140Z,1.00
2023-02-19T19:56:19.620Z,1.00
2023-02-19T19:58:49.260Z,1.00
2023-02-19T20:01:21.655Z,1.00
2023-02-19T20:03:51.746Z,1.00
2023-02-19T20:06:28.972Z,1.00
2023-02-19T20:08:57.599Z,1.00
2023-02-19T20:11:26.488Z,1.00
2023-02-19T20:13:54.868Z,1.00
2023-02-19T20:16:28.641Z,1.00
2023-02-19T20:18:57.083Z,1.00
2023-02-19T20:21:26.462Z,1.00
2023-02-19T20:23:54.851Z,1.00
2023-02-19T20:26:27.776Z,1.00
2023-02-19T20:28:57.172Z,1.00
2023-02-19T20:31:26.089Z,1.00
2023-02-19T20:33:54.568Z,1.00
2023-02-19T20:36:22.994Z,1.00
2023-02-19T20:38:51.664Z,1.00
2023-02-19T20:41:20.299Z,1.00
2023-02-19T20:43:48.866Z,1.00
2023-02-19T20:46:17.362Z,1.00
2023-02-19T20:48:46.761Z,1.00
2023-02-19T20:51:15.278Z,1.00
2023-02-19T20:53:44.217Z,1.00
2023-02-19T20:56:13.073Z,1.00
2023-02-19T20:58:44.388Z,1.00
2023-02-19T21:01:12.923Z,1.00
2023-02-19T21:03:41.326Z,1.00
2023-02-19T21:06:09.976Z,1.00
2023-02-19T21:08:38.631Z,1.00
2023-02-19T21:11:07.073Z,1.00
2023-02-19T21:13:35.999Z,1.00
2023-02-19T21:16:04.938Z,1.00
2023-02-19T21:18:33.296Z,1.00
2023-02-19T21:21:01.716Z,1.00
2023-02-19T21:23:30.100Z,1.00
2023-02-19T21:25:58.481Z,1.00
2023-02-19T21:28:26.863Z,1.00
2023-02-19T21:30:55.411Z,1.00
2023-02-19T21:33:25.789Z,1.00
2023-02-19T21:35:54.287Z,1.00
2023-02-19T21:38:22.631Z,1.00
2023-02-19T21:40:51.602Z,1.00
2023-02-19T21:43:20.021Z,1.00
2023-02-19T21:45:48.453Z,1.00
2023-02-19T21:48:16.925Z,1.00
2023-02-19T21:50:46.533Z,1.00
2023-02-19T21:53:15.164Z,1.00
2023-02-19T21:55:57.483Z,1.00
2023-02-19T21:58:27.598Z,1.00
2023-02-19T22:00:57.088Z,1.00
2023-02-19T22:03:27.353Z,1.00
2023-02-19T22:05:56.341Z,1.00
2023-02-19T22:08:24.677Z,1.00
2023-02-19T22:10:53.017Z,1.00
2023-02-19T22:13:21.463Z,1.00
2023-02-19T22:15:49.818Z,1.00
2023-02-19T22:18:18.162Z,1.00
2023-02-19T22:20:46.606Z,1.00
2023-02-19T22:23:15.244Z,1.00
2023-02-19T22:25:43.624Z,1.00
2023-02-19T22:28:12.033Z,1.00
2023-02-19T22:30:41.744Z,1.00
2023-02-19T22:33:10.950Z,1.00
2023-02-19T22:35:39.504Z,1.00
2023-02-19T22:38:07.976Z,1.00
2023-02-19T22:40:36.336Z,1.00
2023-02-19T22:43:04.737Z,1.00
2023-02-19T22:45:33.126Z,1.00
2023-02-19T22:48:01.501Z,1.00
2023-02-19T22:50:29.901Z,1.00
2023-02-19T22:52:58.231Z,1.00
2023-02-19T22:55:26.563Z,1.00
2023-02-19T22:57:55.040Z,1.00
2023-02-19T23:00:23.580Z,1.00
2023-02-19T23:02:51.921Z,1.00
2023-02-19T23:05:20.370Z,1.00
2023-02-19T23:07:48.729Z,1.00
2023-02-19T23:10:17.097Z,1.00
2023-02-19T23:12:45.513Z,1.00
2023-02-19T23:15:14.792Z,1.00
2023-02-19T23:17:43.137Z,1.00
2023-02-19T23:20:11.829Z,1.00
2023-02-19T23:22:40.800Z,1.00
2023-02-19T23:25:09.762Z,1.00
2023-02-19T23:27:38.785Z,1.00
2023-02-19T23:30:07.842Z,1.00
2023-02-19T23:32:36.196Z,1.00
2023-02-19T23:35:04.722Z,1.00
2023-02-19T23:37:33.123Z,1.00
2023-02-19T23:40:01.721Z,1.00
2023-02-19T23:42:30.261Z,1.00
2023-02-19T23:44:58.605Z,1.00
2023-02-19T23:47:28.347Z,1.00
2023-02-19T23:49:58.137Z,1.00
2023-02-19T23:52:26.487Z,1.00
2023-02-19T23:54:56.225Z,1.00
2023-02-19T23:57:24.637Z,1.00
2023-02-19T23:59:52.997Z,1.00
